Makkovik, Canada
Current Conditions -  °F | °C
As of 7:00 AM on Friday 28 Nov 2014 (Local Time) from CWCA Reporting Station
Overcast Overcast  
Wind Chill:   Ceiling: 3500
Heat Index: 16°   Visibility: 15mi
Dew Point:   Wind: 15mph
Humidity: 68%   Direction: 120°ESE
Pressure: 29.88"   Gusts: 29mph
Location:  55.08°N, 59.18°W
Report Text: CWCA 281100Z 12013G25KT 15SM OVC035 M09/M14 A2988 RMK SC8 SLP120
Loading
Personal Weather Stations






























Interactive Weather Map New forecast layout! Learn more

10-Day Weather Forecast

Advertisements
Track Severe Weather on mobile